Greenleaf, Kansas
Current Conditions -  °F | °C
As of 3:55 PM on Thursday 27 Nov 2014 (Local Time) from KMYZ Reporting Station
Clear Clear  
Wind Chill: 29°   Ceiling: Unl
Heat Index: 37°   Visibility: 10mi
Dew Point: 18°   Wind: 13mph
Humidity: 45%   Direction: 170°S
Pressure: 30.29"   Gusts: 18mph
Location:  39.73°N, 96.98°W
Report Text: KMYZ 272155Z AUTO 17011G16KT 10SM CLR 03/M08 A3029 RMK AO2
Loading
Personal Weather Stations






























Interactive Weather Map New forecast layout! Learn more

10-Day Weather Forecast

Advertisements
Track Severe Weather on mobile